Time;durP1;ratioP1;P1;durP2;ratioP2;P2;SDS_P1;SDS_P2;PMS_P1;PMS_P2;Temp;Humidity;BMP_temperature;BMP_pressure;BME280_temperature;BME280_humidity;BME280_pressure;Samples;Min_cycle;Max_cycle;Signal;HPM_P1;HPM_P2
2021/01/17 00:01:12;;;;;;;10.25;5.35;;;;;;;;;;5135702;27;20035;-78
2021/01/17 00:04:16;;;;;;;11.35;5.90;;;;;;;;;;5122502;27;20069;-78
2021/01/17 00:07:21;;;;;;;10.20;5.95;;;;;;;;;;5135570;27;20036;-78
2021/01/17 00:10:29;;;;;;;15.18;6.47;;;;;;;;;;5135179;27;20047;-78
2021/01/17 00:13:33;;;;;;;11.00;6.97;;;;;;;;;;5135304;27;20036;-78
2021/01/17 00:16:39;;;;;;;17.63;8.63;;;;;;;;;;5135454;27;20043;-78
2021/01/17 00:19:43;;;;;;;13.45;8.35;;;;;;;;;;5122575;27;20495;-78
2021/01/17 00:22:48;;;;;;;14.77;9.07;;;;;;;;;;5134821;27;20036;-78
2021/01/17 00:25:53;;;;;;;17.90;8.98;;;;;;;;;;5135018;27;20050;-78
2021/01/17 00:28:57;;;;;;;18.02;9.60;;;;;;;;;;5122243;27;20031;-78
2021/01/17 00:32:01;;;;;;;23.58;10.07;;;;;;;;;;5134892;27;20063;-78
2021/01/17 00:35:07;;;;;;;17.02;9.23;;;;;;;;;;5122137;27;20386;-78
2021/01/17 00:38:11;;;;;;;14.77;9.02;;;;;;;;;;5134584;27;20042;-78
2021/01/17 00:41:15;;;;;;;15.48;9.68;;;;;;;;;;5134776;27;20035;-78
2021/01/17 00:44:20;;;;;;;17.95;9.95;;;;;;;;;;5121846;27;20046;-78
2021/01/17 00:47:24;;;;;;;18.13;10.27;;;;;;;;;;5134824;27;20043;-78
2021/01/17 00:50:29;;;;;;;19.17;9.48;;;;;;;;;;5121913;27;20050;-78
2021/01/17 00:53:35;;;;;;;22.73;10.90;;;;;;;;;;5110762;27;20035;-78
2021/01/17 00:56:40;;;;;;;16.55;9.57;;;;;;;;;;5098527;27;20050;-78
2021/01/17 00:59:46;;;;;;;23.60;10.80;;;;;;;;;;5121412;27;20477;-78
2021/01/17 01:02:50;;;;;;;18.77;9.98;;;;;;;;;;5121764;27;20412;-78
2021/01/17 01:05:54;;;;;;;20.88;10.18;;;;;;;;;;5134396;27;20043;-78
2021/01/17 01:09:01;;;;;;;22.83;11.75;;;;;;;;;;5133769;27;20043;-78
2021/01/17 01:12:06;;;;;;;26.90;15.32;;;;;;;;;;5134004;27;20050;-78
2021/01/17 01:15:10;;;;;;;24.63;14.77;;;;;;;;;;5134119;27;20058;-78
2021/01/17 01:18:14;;;;;;;25.92;15.02;;;;;;;;;;5121199;27;20501;-78
2021/01/17 01:21:25;;;;;;;25.10;14.60;;;;;;;;;;5134248;27;20034;-78
2021/01/17 01:24:31;;;;;;;31.52;16.75;;;;;;;;;;5133777;27;20054;-78
2021/01/17 01:27:36;;;;;;;29.55;16.35;;;;;;;;;;5133987;27;20042;-78
2021/01/17 01:30:40;;;;;;;26.90;15.50;;;;;;;;;;5133938;27;20046;-78
2021/01/17 01:33:44;;;;;;;23.25;13.70;;;;;;;;;;5133617;27;20505;-78
2021/01/17 01:36:49;;;;;;;39.17;19.90;;;;;;;;;;5133989;27;20042;-78
2021/01/17 01:39:53;;;;;;;29.77;16.85;;;;;;;;;;5133960;27;20042;-78
2021/01/17 01:42:58;;;;;;;34.25;17.42;;;;;;;;;;5133490;27;20043;-78
2021/01/17 01:46:02;;;;;;;36.20;17.88;;;;;;;;;;5133209;27;20035;-78
2021/01/17 01:49:06;;;;;;;35.47;16.98;;;;;;;;;;5120986;27;20038;-78
2021/01/17 01:52:13;;;;;;;32.60;17.27;;;;;;;;;;5133635;27;20046;-77
2021/01/17 01:55:18;;;;;;;34.55;18.38;;;;;;;;;;5133517;27;20046;-78
2021/01/17 01:58:23;;;;;;;32.33;19.10;;;;;;;;;;5133645;27;20050;-78
2021/01/17 02:01:27;;;;;;;35.22;20.33;;;;;;;;;;5119595;27;20050;-78
2021/01/17 02:04:32;;;;;;;29.73;17.55;;;;;;;;;;5133030;27;20078;-78
2021/01/17 02:07:56;;;;;;;31.92;18.33;;;;;;;;;;5133119;27;20034;-78
2021/01/17 02:11:05;;;;;;;30.60;18.08;;;;;;;;;;5095937;27;20074;-77
2021/01/17 02:14:17;;;;;;;29.85;16.75;;;;;;;;;;5120520;27;20382;-77
2021/01/17 02:17:22;;;;;;;27.63;17.80;;;;;;;;;;5133306;27;20054;-77
2021/01/17 02:20:28;;;;;;;31.85;16.95;;;;;;;;;;5120320;27;20042;-77
2021/01/17 02:23:40;;;;;;;31.40;17.55;;;;;;;;;;5133063;27;20402;-77
2021/01/17 02:26:44;;;;;;;;;;;;;;;;;;5133082;27;20038;-77
2021/01/17 02:29:48;;;;;;;35.53;20.45;;;;;;;;;;5132872;27;19915;-77
2021/01/17 02:32:58;;;;;;;43.83;23.52;;;;;;;;;;5132462;27;20410;-77
2021/01/17 02:36:18;;;;;;;39.47;22.08;;;;;;;;;;5132755;27;20058;-78
2021/01/17 02:39:25;;;;;;;41.92;24.45;;;;;;;;;;5132237;27;20050;-77
2021/01/17 02:42:30;;;;;;;45.40;24.95;;;;;;;;;;5120196;27;20042;-77
2021/01/17 02:45:35;;;;;;;49.15;25.70;;;;;;;;;;5132626;27;20054;-77
2021/01/17 02:48:40;;;;;;;42.03;23.58;;;;;;;;;;5132282;27;20042;-77
2021/01/17 02:51:44;;;;;;;45.20;25.63;;;;;;;;;;5119843;27;20046;-78
2021/01/17 02:54:49;;;;;;;50.47;25.25;;;;;;;;;;5108129;27;20038;-78
2021/01/17 02:57:57;;;;;;;40.08;23.35;;;;;;;;;;5132298;27;20054;-78
2021/01/17 03:01:02;;;;;;;42.35;24.98;;;;;;;;;;5132438;27;20050;-77
2021/01/17 03:04:14;;;;;;;47.20;24.20;;;;;;;;;;5119336;27;20054;-78
2021/01/17 03:07:19;;;;;;;42.33;23.35;;;;;;;;;;5131945;27;20038;-77
2021/01/17 03:10:24;;;;;;;40.33;24.45;;;;;;;;;;5119122;28;20050;-77
2021/01/17 03:13:30;;;;;;;44.13;24.85;;;;;;;;;;5132198;28;20398;-78
2021/01/17 03:16:34;;;;;;;40.88;24.55;;;;;;;;;;5131910;28;20046;-78
2021/01/17 03:19:39;;;;;;;39.55;24.00;;;;;;;;;;5119426;28;20046;-78
2021/01/17 03:22:43;;;;;;;44.42;23.25;;;;;;;;;;5132189;28;20042;-78
2021/01/17 03:25:47;;;;;;;40.75;23.35;;;;;;;;;;5131903;28;20043;-77
2021/01/17 03:28:52;;;;;;;39.08;22.73;;;;;;;;;;5131571;28;20046;-78
2021/01/17 03:31:56;;;;;;;43.40;24.30;;;;;;;;;;5119364;28;20188;-78
2021/01/17 03:35:00;;;;;;;42.83;24.02;;;;;;;;;;5119544;28;20508;-78
2021/01/17 03:38:05;;;;;;;43.95;23.70;;;;;;;;;;5131790;28;20046;-77
2021/01/17 03:41:12;;;;;;;40.42;22.13;;;;;;;;;;5131641;28;20042;-78
2021/01/17 03:44:17;;;;;;;36.75;21.95;;;;;;;;;;5131700;28;20058;-77
2021/01/17 03:47:21;;;;;;;44.33;23.27;;;;;;;;;;5131544;28;20046;-77
2021/01/17 03:50:26;;;;;;;37.13;21.77;;;;;;;;;;5131816;28;20042;-78
2021/01/17 03:53:30;;;;;;;37.38;22.15;;;;;;;;;;5131723;28;20047;-77
2021/01/17 03:56:34;;;;;;;39.13;22.65;;;;;;;;;;5131494;28;20407;-77
2021/01/17 03:59:38;;;;;;;45.25;23.40;;;;;;;;;;5131633;28;20049;-77
2021/01/17 04:02:43;;;;;;;43.65;24.20;;;;;;;;;;5131525;28;20390;-78
2021/01/17 04:05:47;;;;;;;37.03;21.45;;;;;;;;;;5118881;28;20058;-78
2021/01/17 04:08:52;;;;;;;41.75;22.23;;;;;;;;;;5118656;28;20054;-77
2021/01/17 04:11:56;;;;;;;40.67;22.17;;;;;;;;;;5118520;28;20042;-78
2021/01/17 04:15:00;;;;;;;41.33;22.50;;;;;;;;;;5131459;28;20042;-77
2021/01/17 04:18:04;;;;;;;40.22;22.65;;;;;;;;;;5131325;28;20100;-78
2021/01/17 04:21:09;;;;;;;42.88;24.77;;;;;;;;;;5118989;28;20034;-78
2021/01/17 04:24:13;;;;;;;52.00;25.23;;;;;;;;;;5133326;27;20070;-78
2021/01/17 04:27:17;;;;;;;44.47;24.08;;;;;;;;;;5135114;27;20038;-77
2021/01/17 04:30:22;;;;;;;44.17;23.77;;;;;;;;;;5122260;27;20501;-77
2021/01/17 04:33:26;;;;;;;39.75;22.52;;;;;;;;;;5134935;27;20037;-78
2021/01/17 04:36:30;;;;;;;40.67;23.77;;;;;;;;;;5134768;27;20054;-78
2021/01/17 04:39:35;;;;;;;38.90;22.40;;;;;;;;;;5134967;27;20042;-78
2021/01/17 04:42:41;;;;;;;39.92;22.25;;;;;;;;;;5134424;27;20394;-77
2021/01/17 04:45:47;;;;;;;36.70;21.20;;;;;;;;;;5122207;27;20531;-78
2021/01/17 04:48:54;;;;;;;37.30;21.98;;;;;;;;;;5134509;27;20042;-78
2021/01/17 04:52:01;;;;;;;40.00;21.92;;;;;;;;;;5122041;27;20053;-78
2021/01/17 04:55:05;;;;;;;36.38;20.17;;;;;;;;;;5134448;27;20046;-78
2021/01/17 04:58:10;;;;;;;34.03;19.13;;;;;;;;;;5134740;27;20042;-78
2021/01/17 05:01:20;;;;;;;38.58;20.88;;;;;;;;;;5134144;27;20038;-77
2021/01/17 05:04:37;;;;;;;32.70;19.75;;;;;;;;;;5121580;27;20058;-77
2021/01/17 05:07:45;;;;;;;34.67;18.92;;;;;;;;;;5121572;27;20505;-77
2021/01/17 05:10:54;;;;;;;35.63;20.50;;;;;;;;;;5121456;27;20062;-77
2021/01/17 05:14:01;;;;;;;37.42;22.73;;;;;;;;;;5134177;27;20046;-77
2021/01/17 05:17:07;;;;;;;40.58;21.27;;;;;;;;;;5121483;27;20042;-78
2021/01/17 05:20:11;;;;;;;37.42;21.10;;;;;;;;;;5121349;27;20042;-78
2021/01/17 05:23:16;;;;;;;37.00;20.35;;;;;;;;;;5133851;27;20515;-77
2021/01/17 05:26:20;;;;;;;33.38;19.30;;;;;;;;;;5133926;27;20050;-77
2021/01/17 05:29:26;;;;;;;32.38;17.77;;;;;;;;;;5133718;27;20054;-77
2021/01/17 05:32:32;;;;;;;33.53;18.52;;;;;;;;;;5133576;27;20042;-77
2021/01/17 05:35:36;;;;;;;34.33;18.42;;;;;;;;;;5133730;27;20038;-78
2021/01/17 05:38:41;;;;;;;34.47;18.23;;;;;;;;;;5133725;27;20045;-77
2021/01/17 05:41:45;;;;;;;35.72;17.25;;;;;;;;;;5133692;27;20489;-77
2021/01/17 05:44:49;;;;;;;34.47;17.60;;;;;;;;;;5133455;27;20050;-77
2021/01/17 05:47:53;;;;;;;30.67;17.83;;;;;;;;;;5133431;27;20042;-78
2021/01/17 05:50:58;;;;;;;30.05;16.88;;;;;;;;;;5133680;27;20395;-78
2021/01/17 05:54:09;;;;;;;26.20;15.57;;;;;;;;;;5133419;27;20046;-77
2021/01/17 05:57:14;;;;;;;23.50;13.13;;;;;;;;;;5133365;27;20056;-77
2021/01/17 06:00:32;;;;;;;20.83;11.88;;;;;;;;;;5133271;27;20042;-77
2021/01/17 06:03:37;;;;;;;25.50;13.65;;;;;;;;;;5133122;27;20533;-78
2021/01/17 06:06:43;;;;;;;22.40;13.13;;;;;;;;;;5133323;27;20042;-77
2021/01/17 06:09:47;;;;;;;25.15;13.93;;;;;;;;;;5120208;27;20058;-77
2021/01/17 06:12:52;;;;;;;25.67;14.27;;;;;;;;;;5132984;27;20500;-77
2021/01/17 06:15:56;;;;;;;23.25;13.32;;;;;;;;;;5132902;27;20058;-77
2021/01/17 06:19:02;;;;;;;29.45;15.32;;;;;;;;;;5132657;27;20034;-77
2021/01/17 06:22:09;;;;;;;26.83;15.57;;;;;;;;;;5132962;27;20042;-77
2021/01/17 06:25:14;;;;;;;27.23;14.85;;;;;;;;;;5133043;27;20050;-77
2021/01/17 06:28:18;;;;;;;22.45;13.48;;;;;;;;;;5132624;27;20038;-77
2021/01/17 06:31:27;;;;;;;23.83;13.75;;;;;;;;;;5132871;27;20050;-77
2021/01/17 06:34:32;;;;;;;21.83;13.65;;;;;;;;;;5120191;27;20042;-77
2021/01/17 06:37:36;;;;;;;24.35;13.25;;;;;;;;;;5132687;27;20042;-77
2021/01/17 06:40:42;;;;;;;28.23;15.15;;;;;;;;;;5132516;27;20062;-77
2021/01/17 06:43:47;;;;;;;26.85;14.90;;;;;;;;;;5132583;27;20038;-77
2021/01/17 06:46:52;;;;;;;25.90;14.80;;;;;;;;;;5131938;27;20434;-77
2021/01/17 06:49:57;;;;;;;29.02;17.55;;;;;;;;;;5132421;27;20046;-77
2021/01/17 06:53:01;;;;;;;27.00;15.70;;;;;;;;;;5132655;27;20050;-77
2021/01/17 06:56:14;;;;;;;29.67;15.45;;;;;;;;;;5132110;27;20038;-76
2021/01/17 06:59:35;;;;;;;29.85;17.48;;;;;;;;;;5132356;27;20046;-77
2021/01/17 07:02:40;;;;;;;29.02;16.35;;;;;;;;;;5132371;27;20038;-77
2021/01/17 07:06:04;;;;;;;25.98;16.42;;;;;;;;;;5132103;27;20049;-77
2021/01/17 07:09:24;;;;;;;32.90;16.92;;;;;;;;;;5131769;27;20058;-77
2021/01/17 07:12:47;;;;;;;33.85;17.95;;;;;;;;;;5131963;28;20046;-77
2021/01/17 07:15:52;;;;;;;29.20;16.33;;;;;;;;;;5132079;28;20053;-78
2021/01/17 07:19:01;;;;;;;26.92;15.90;;;;;;;;;;5132111;28;20062;-77
2021/01/17 07:22:05;;;;;;;26.90;15.68;;;;;;;;;;5132052;28;20062;-77
2021/01/17 07:25:11;;;;;;;28.67;14.43;;;;;;;;;;5131902;28;20116;-77
2021/01/17 07:28:25;;;;;;;25.92;16.13;;;;;;;;;;5132043;28;20046;-77
2021/01/17 07:31:36;;;;;;;24.80;13.65;;;;;;;;;;5131873;28;20058;-77
2021/01/17 07:34:49;;;;;;;27.67;15.43;;;;;;;;;;5132157;28;20390;-77
2021/01/17 07:37:54;;;;;;;19.40;10.40;;;;;;;;;;5132102;28;20050;-77
2021/01/17 07:41:03;;;;;;;20.27;10.40;;;;;;;;;;5132099;28;20510;-77
2021/01/17 07:44:08;;;;;;;17.45;11.38;;;;;;;;;;5131906;28;20619;-77
2021/01/17 07:47:15;;;;;;;15.85;8.48;;;;;;;;;;5131840;28;20042;-77
2021/01/17 07:50:19;;;;;;;16.90;8.70;;;;;;;;;;5131810;28;20043;-77
2021/01/17 07:53:35;;;;;;;18.40;9.00;;;;;;;;;;5131866;28;20035;-76
2021/01/17 07:56:40;;;;;;;14.82;6.95;;;;;;;;;;5119184;28;20046;-76
2021/01/17 07:59:44;;;;;;;12.95;6.53;;;;;;;;;;5122100;27;20035;-77
2021/01/17 08:02:49;;;;;;;15.35;7.75;;;;;;;;;;5135465;27;20486;-77
2021/01/17 08:05:55;;;;;;;16.38;8.15;;;;;;;;;;5135598;27;20039;-77
2021/01/17 08:08:59;;;;;;;13.40;7.90;;;;;;;;;;5134836;27;20041;-76
2021/01/17 08:12:04;;;;;;;15.93;8.48;;;;;;;;;;5136058;27;20038;-76
2021/01/17 08:15:12;;;;;;;21.42;10.75;;;;;;;;;;5135814;27;20042;-76
2021/01/17 08:18:35;;;;;;;14.60;9.30;;;;;;;;;;5135352;27;20046;-76
2021/01/17 08:21:40;;;;;;;22.90;12.02;;;;;;;;;;5135735;27;20035;-76
2021/01/17 08:24:52;;;;;;;28.15;15.27;;;;;;;;;;5135138;27;20108;-76
2021/01/17 08:27:56;;;;;;;25.38;13.70;;;;;;;;;;5135086;27;20042;-76
2021/01/17 08:31:00;;;;;;;23.60;11.90;;;;;;;;;;5135147;27;20049;-76
2021/01/17 08:34:08;;;;;;;19.92;10.88;;;;;;;;;;5134752;27;20425;-76
2021/01/17 08:37:16;;;;;;;22.38;11.40;;;;;;;;;;5134833;27;20050;-77
2021/01/17 08:40:30;;;;;;;24.88;13.25;;;;;;;;;;5135030;27;20220;-77
2021/01/17 08:43:39;;;;;;;20.80;11.75;;;;;;;;;;5136081;27;20612;-76
2021/01/17 08:46:43;;;;;;;17.83;9.77;;;;;;;;;;5134953;27;20046;-76
2021/01/17 08:49:48;;;;;;;23.55;9.70;;;;;;;;;;5134872;27;20068;-76
2021/01/17 08:52:53;;;;;;;19.73;10.27;;;;;;;;;;5134810;27;20039;-76
2021/01/17 08:55:59;;;;;;;16.67;10.23;;;;;;;;;;5134780;27;20152;-76
2021/01/17 08:59:03;;;;;;;18.73;10.82;;;;;;;;;;5134243;27;20501;-76
2021/01/17 09:02:09;;;;;;;19.52;11.48;;;;;;;;;;5134437;27;20394;-76
2021/01/17 09:05:18;;;;;;;21.25;12.05;;;;;;;;;;5133957;27;20065;-76
2021/01/17 09:08:23;;;;;;;23.55;13.13;;;;;;;;;;5134121;27;20398;-76
2021/01/17 09:11:40;;;;;;;26.92;14.25;;;;;;;;;;5134046;27;20502;-76
2021/01/17 09:14:44;;;;;;;28.02;14.25;;;;;;;;;;5133858;27;20038;-76
2021/01/17 09:17:59;;;;;;;23.17;13.55;;;;;;;;;;5120937;27;20053;-76
2021/01/17 09:21:05;;;;;;;25.58;14.88;;;;;;;;;;5134294;27;20046;-76
2021/01/17 09:24:09;;;;;;;27.23;15.35;;;;;;;;;;5133846;27;20394;-77
2021/01/17 09:27:13;;;;;;;26.85;15.27;;;;;;;;;;5133838;27;20054;-77
2021/01/17 09:30:21;;;;;;;27.02;15.77;;;;;;;;;;5133967;27;20038;-76
2021/01/17 09:33:28;;;;;;;34.72;16.13;;;;;;;;;;5133547;27;20046;-77
2021/01/17 09:36:34;;;;;;;31.60;17.55;;;;;;;;;;5133624;27;20082;-77
2021/01/17 09:39:42;;;;;;;32.97;17.75;;;;;;;;;;5133997;27;20046;-76
2021/01/17 09:42:47;;;;;;;37.00;21.63;;;;;;;;;;5133698;27;20042;-76
2021/01/17 09:45:53;;;;;;;48.72;25.20;;;;;;;;;;5133452;27;20054;-76
2021/01/17 09:48:59;;;;;;;47.40;24.80;;;;;;;;;;5133375;27;20501;-76
2021/01/17 09:52:03;;;;;;;40.63;22.17;;;;;;;;;;5133313;27;20046;-76
2021/01/17 09:55:11;;;;;;;51.80;26.35;;;;;;;;;;5133252;27;20046;-77
2021/01/17 09:58:16;;;;;;;36.63;20.02;;;;;;;;;;5133245;27;20042;-76
2021/01/17 10:01:20;;;;;;;25.90;14.45;;;;;;;;;;5133258;27;20042;-76
2021/01/17 10:04:25;;;;;;;25.23;13.82;;;;;;;;;;5133101;27;20070;-76
2021/01/17 10:07:30;;;;;;;22.33;11.30;;;;;;;;;;5132784;27;20045;-76
2021/01/17 10:10:35;;;;;;;40.75;17.90;;;;;;;;;;5132864;27;20058;-76
2021/01/17 10:13:57;;;;;;;56.03;25.63;;;;;;;;;;5120570;27;20042;-76
2021/01/17 10:17:03;;;;;;;49.40;25.45;;;;;;;;;;5132828;27;20038;-76
2021/01/17 10:20:08;;;;;;;47.83;27.15;;;;;;;;;;5119886;27;20501;-76
2021/01/17 10:23:12;;;;;;;50.22;26.50;;;;;;;;;;5132418;27;20034;-77
2021/01/17 10:26:23;;;;;;;73.90;35.55;;;;;;;;;;5132512;27;20505;-76
2021/01/17 10:29:29;;;;;;;30.88;16.92;;;;;;;;;;5120114;27;20050;-77
2021/01/17 10:32:33;;;;;;;27.70;13.75;;;;;;;;;;5132841;27;20038;-76
2021/01/17 10:35:48;;;;;;;20.88;12.48;;;;;;;;;;5132423;27;20042;-76
2021/01/17 10:38:53;;;;;;;23.00;13.35;;;;;;;;;;5119795;27;20053;-76
2021/01/17 10:42:02;;;;;;;24.45;13.60;;;;;;;;;;5119785;27;20035;-76
2021/01/17 10:45:08;;;;;;;28.05;14.45;;;;;;;;;;5132142;27;20120;-76
2021/01/17 10:48:12;;;;;;;25.80;14.93;;;;;;;;;;5132308;27;20042;-76
2021/01/17 10:51:20;;;;;;;28.88;15.88;;;;;;;;;;5132085;27;20501;-76
2021/01/17 10:54:31;;;;;;;26.25;13.75;;;;;;;;;;5132095;27;20042;-76
2021/01/17 10:57:36;;;;;;;33.72;19.42;;;;;;;;;;5132242;27;20050;-75
2021/01/17 11:00:50;;;;;;;26.45;16.38;;;;;;;;;;5132098;27;20042;-76
2021/01/17 11:03:57;;;;;;;24.00;12.50;;;;;;;;;;5131856;27;20042;-76
2021/01/17 11:07:02;;;;;;;27.63;15.82;;;;;;;;;;5132038;27;20058;-76
2021/01/17 11:10:14;;;;;;;27.75;16.95;;;;;;;;;;5131671;27;20050;-76
2021/01/17 11:13:18;;;;;;;27.98;15.85;;;;;;;;;;5131730;27;20038;-77
2021/01/17 11:16:43;;;;;;;17.42;11.02;;;;;;;;;;5131646;28;20393;-76
2021/01/17 11:19:47;;;;;;;15.43;10.23;;;;;;;;;;5132123;28;20042;-76
2021/01/17 11:22:52;;;;;;;13.82;8.85;;;;;;;;;;5131638;28;20062;-76
2021/01/17 11:26:04;;;;;;;20.90;10.38;;;;;;;;;;5131994;28;20054;-78
2021/01/17 11:29:17;;;;;;;23.45;13.45;;;;;;;;;;5137980;27;20046;-78
2021/01/17 11:32:33;;;;;;;24.38;14.85;;;;;;;;;;5132986;27;20050;-77
2021/01/17 11:35:38;;;;;;;27.27;13.13;;;;;;;;;;5136419;27;20038;-77
2021/01/17 11:38:43;;;;;;;27.48;16.33;;;;;;;;;;5136119;27;20109;-78
2021/01/17 11:41:48;;;;;;;28.48;15.55;;;;;;;;;;5123605;27;20304;-78
2021/01/17 11:44:53;;;;;;;26.63;15.43;;;;;;;;;;5135751;27;20398;-77
2021/01/17 11:47:58;;;;;;;28.42;15.20;;;;;;;;;;5136118;27;20046;-79
2021/01/17 11:51:03;;;;;;;26.55;14.20;;;;;;;;;;5136095;27;20046;-77
2021/01/17 11:54:12;;;;;;;24.90;14.88;;;;;;;;;;5136072;27;20050;-77
2021/01/17 11:57:18;;;;;;;29.42;16.08;;;;;;;;;;5135444;27;20042;-77
2021/01/17 12:00:23;;;;;;;43.53;25.30;;;;;;;;;;5135631;27;20042;-77
2021/01/17 12:03:30;;;;;;;48.47;26.73;;;;;;;;;;5135785;27;20034;-77
2021/01/17 12:06:35;;;;;;;32.50;18.58;;;;;;;;;;5135497;27;20054;-78
2021/01/17 12:09:39;;;;;;;62.78;33.20;;;;;;;;;;5135356;27;20050;-77
2021/01/17 12:12:45;;;;;;;96.97;49.20;;;;;;;;;;5135499;27;20040;-77
2021/01/17 12:15:49;;;;;;;158.15;85.32;;;;;;;;;;5135674;27;20046;-77
2021/01/17 12:18:54;;;;;;;125.22;67.45;;;;;;;;;;5111072;27;20410;-78
2021/01/17 12:22:02;;;;;;;114.65;61.70;;;;;;;;;;5135263;27;20046;-79
2021/01/17 12:25:09;;;;;;;92.53;51.25;;;;;;;;;;5135015;27;20065;-80
2021/01/17 12:28:14;;;;;;;98.75;53.75;;;;;;;;;;5135065;27;20042;-78
2021/01/17 12:31:19;;;;;;;97.45;51.35;;;;;;;;;;5135209;27;20053;-77
2021/01/17 12:34:23;;;;;;;79.05;42.95;;;;;;;;;;5122226;27;20041;-77
2021/01/17 12:37:29;;;;;;;84.85;47.70;;;;;;;;;;5134655;27;20395;-77
2021/01/17 12:40:33;;;;;;;51.47;30.52;;;;;;;;;;5134731;27;20042;-78
2021/01/17 12:43:38;;;;;;;48.85;29.10;;;;;;;;;;5134440;27;20054;-76
2021/01/17 12:46:44;;;;;;;39.75;24.35;;;;;;;;;;5134408;27;20054;-77
2021/01/17 12:49:48;;;;;;;24.65;16.23;;;;;;;;;;5134625;27;20034;-77
2021/01/17 12:52:52;;;;;;;26.88;15.20;;;;;;;;;;5134693;27;20105;-77
2021/01/17 12:55:57;;;;;;;25.17;14.98;;;;;;;;;;5134880;27;20418;-77
2021/01/17 12:59:03;;;;;;;23.00;14.02;;;;;;;;;;5134422;27;20057;-78
2021/01/17 13:02:08;;;;;;;22.27;12.93;;;;;;;;;;5135013;27;20038;-78
2021/01/17 13:05:13;;;;;;;20.27;12.27;;;;;;;;;;5134212;27;20074;-78
2021/01/17 13:08:18;;;;;;;22.95;14.43;;;;;;;;;;5134187;27;20046;-79
2021/01/17 13:11:27;;;;;;;27.27;14.80;;;;;;;;;;5134584;27;20065;-79
2021/01/17 13:14:32;;;;;;;25.85;15.20;;;;;;;;;;5134591;27;20042;-79
2021/01/17 13:17:36;;;;;;;22.38;13.75;;;;;;;;;;5134496;27;20505;-78
2021/01/17 13:20:41;;;;;;;27.42;15.35;;;;;;;;;;5134015;27;20042;-77
2021/01/17 13:23:47;;;;;;;20.75;13.68;;;;;;;;;;5134071;27;20047;-78
2021/01/17 13:26:55;;;;;;;22.23;14.23;;;;;;;;;;5134277;27;20050;-79
2021/01/17 13:30:05;;;;;;;26.85;14.27;;;;;;;;;;5133811;27;20501;-79
2021/01/17 13:33:13;;;;;;;20.27;13.05;;;;;;;;;;5121287;27;20046;-76
2021/01/17 13:36:18;;;;;;;27.15;15.15;;;;;;;;;;5133799;27;20046;-76
2021/01/17 13:39:23;;;;;;;22.20;14.25;;;;;;;;;;5133889;27;20489;-76
2021/01/17 13:42:28;;;;;;;31.50;18.55;;;;;;;;;;5133539;27;20042;-75
2021/01/17 13:45:33;;;;;;;27.10;16.85;;;;;;;;;;5133174;27;20045;-76
2021/01/17 13:48:36;;;;;;;28.65;17.55;;;;;;;;;;5133512;27;20292;-76
2021/01/17 13:51:41;;;;;;;30.65;17.75;;;;;;;;;;5120962;27;20046;-76
2021/01/17 13:54:48;;;;;;;31.90;17.40;;;;;;;;;;5133327;27;20046;-75
2021/01/17 13:57:52;;;;;;;33.85;19.88;;;;;;;;;;5133299;27;20054;-75
2021/01/17 14:00:57;;;;;;;37.92;21.63;;;;;;;;;;5133210;27;20042;-76
2021/01/17 14:04:01;;;;;;;26.55;17.80;;;;;;;;;;5133074;27;20042;-76
2021/01/17 14:07:06;;;;;;;39.30;23.02;;;;;;;;;;5132777;27;20050;-75
2021/01/17 14:10:10;;;;;;;40.30;23.90;;;;;;;;;;5132548;27;20046;-76
2021/01/17 14:13:17;;;;;;;31.45;20.40;;;;;;;;;;5133047;27;20042;-76
2021/01/17 14:16:22;;;;;;;33.55;20.48;;;;;;;;;;5132929;27;20042;-76
2021/01/17 14:19:26;;;;;;;26.25;16.20;;;;;;;;;;5120657;27;20058;-76
2021/01/17 14:22:30;;;;;;;24.85;16.27;;;;;;;;;;5120197;27;20043;-76
2021/01/17 14:25:35;;;;;;;34.25;20.58;;;;;;;;;;5108187;27;20053;-76
2021/01/17 14:28:39;;;;;;;33.10;18.35;;;;;;;;;;5132842;27;20042;-76
2021/01/17 14:31:44;;;;;;;37.03;22.65;;;;;;;;;;5120107;27;20054;-76
2021/01/17 14:34:49;;;;;;;37.03;22.65;;;;;;;;;;5132787;27;20041;-76
2021/01/17 14:37:53;;;;;;;34.05;21.48;;;;;;;;;;5132899;27;20046;-76
2021/01/17 14:40:58;;;;;;;33.25;23.23;;;;;;;;;;5132584;27;20513;-76
2021/01/17 14:44:03;;;;;;;35.95;24.80;;;;;;;;;;5120261;27;20058;-76
2021/01/17 14:47:08;;;;;;;47.50;29.10;;;;;;;;;;5132399;27;20481;-76
2021/01/17 14:50:13;;;;;;;41.13;27.88;;;;;;;;;;5132745;27;20296;-76
2021/01/17 14:53:18;;;;;;;35.53;25.25;;;;;;;;;;5132497;27;20046;-77
2021/01/17 14:56:22;;;;;;;40.47;26.88;;;;;;;;;;5119899;27;20042;-77
2021/01/17 14:59:29;;;;;;;48.80;32.20;;;;;;;;;;5131909;27;20406;-76
2021/01/17 15:02:33;;;;;;;59.72;37.50;;;;;;;;;;5132220;27;20038;-76
2021/01/17 15:05:38;;;;;;;63.22;41.67;;;;;;;;;;5132026;27;20042;-76
2021/01/17 15:08:42;;;;;;;74.32;46.83;;;;;;;;;;5131517;27;20390;-76
2021/01/17 15:11:47;;;;;;;70.53;47.28;;;;;;;;;;5119452;28;20038;-76
2021/01/17 15:14:51;;;;;;;64.28;42.67;;;;;;;;;;5132106;27;20494;-75
2021/01/17 15:17:56;;;;;;;76.38;47.17;;;;;;;;;;5131870;28;20038;-76
2021/01/17 15:21:01;;;;;;;51.10;31.13;;;;;;;;;;5119510;28;20042;-76
2021/01/17 15:24:08;;;;;;;59.58;36.38;;;;;;;;;;5119219;28;20058;-76
2021/01/17 15:27:13;;;;;;;45.05;28.60;;;;;;;;;;5131900;28;20045;-76
2021/01/17 15:30:17;;;;;;;29.20;19.65;;;;;;;;;;5131929;28;20042;-75
2021/01/17 15:33:22;;;;;;;33.55;20.65;;;;;;;;;;5131846;28;20054;-76
2021/01/17 15:36:26;;;;;;;23.25;14.20;;;;;;;;;;5131881;28;20042;-76
2021/01/17 15:39:31;;;;;;;22.17;14.20;;;;;;;;;;5132093;28;20058;-75
2021/01/17 15:42:35;;;;;;;27.98;17.48;;;;;;;;;;5132101;28;20050;-76
2021/01/17 15:45:39;;;;;;;24.25;16.98;;;;;;;;;;5131863;28;20050;-76
2021/01/17 15:48:46;;;;;;;30.98;19.35;;;;;;;;;;5118870;28;20034;-76
2021/01/17 15:51:50;;;;;;;32.88;21.00;;;;;;;;;;5132085;28;20386;-76
2021/01/17 15:54:54;;;;;;;34.22;22.30;;;;;;;;;;5131771;28;20493;-76
2021/01/17 15:57:59;;;;;;;35.50;21.23;;;;;;;;;;5131684;28;20042;-76
2021/01/17 16:01:03;;;;;;;31.38;19.27;;;;;;;;;;5131912;28;20042;-76
2021/01/17 16:04:08;;;;;;;29.25;18.88;;;;;;;;;;5131519;28;20390;-76
2021/01/17 16:07:12;;;;;;;32.55;20.35;;;;;;;;;;5118582;28;20062;-77
2021/01/17 16:10:17;;;;;;;22.08;14.57;;;;;;;;;;5131378;28;20378;-76
2021/01/17 16:13:21;;;;;;;21.25;14.43;;;;;;;;;;5131438;28;20390;-76
2021/01/17 16:16:25;;;;;;;22.00;14.52;;;;;;;;;;5118794;28;20042;-76
2021/01/17 16:19:30;;;;;;;25.08;16.95;;;;;;;;;;5132644;27;20046;-77
2021/01/17 16:22:35;;;;;;;32.22;20.33;;;;;;;;;;5135442;27;20039;-77
2021/01/17 16:25:39;;;;;;;27.65;17.17;;;;;;;;;;5135012;27;20399;-76
2021/01/17 16:28:43;;;;;;;53.50;34.60;;;;;;;;;;5135249;27;20046;-76
2021/01/17 16:31:52;;;;;;;56.67;37.20;;;;;;;;;;5135309;27;20045;-76
2021/01/17 16:34:57;;;;;;;33.42;21.23;;;;;;;;;;5110800;27;20069;-76
2021/01/17 16:38:02;;;;;;;48.78;29.90;;;;;;;;;;5122261;27;20050;-76
2021/01/17 16:41:07;;;;;;;32.47;21.25;;;;;;;;;;5121838;27;20039;-76
2021/01/17 16:44:11;;;;;;;43.53;27.48;;;;;;;;;;5134650;27;20074;-76
2021/01/17 16:47:15;;;;;;;63.53;36.55;;;;;;;;;;5121827;27;20046;-77
2021/01/17 16:50:20;;;;;;;64.47;40.25;;;;;;;;;;5134798;27;20038;-77
2021/01/17 16:53:24;;;;;;;46.38;30.33;;;;;;;;;;5134387;27;20042;-77
2021/01/17 16:56:29;;;;;;;40.25;25.10;;;;;;;;;;5122090;27;20038;-77
2021/01/17 16:59:33;;;;;;;71.55;44.97;;;;;;;;;;5110389;27;20042;-77
2021/01/17 17:02:38;;;;;;;42.38;28.27;;;;;;;;;;5133982;27;20042;-77
2021/01/17 17:05:42;;;;;;;49.22;32.50;;;;;;;;;;5121575;27;20054;-77
2021/01/17 17:08:47;;;;;;;50.85;33.47;;;;;;;;;;5134370;27;20046;-76
2021/01/17 17:11:51;;;;;;;41.67;27.13;;;;;;;;;;5121337;27;20050;-77
2021/01/17 17:14:56;;;;;;;59.47;35.15;;;;;;;;;;5134373;27;20034;-76
2021/01/17 17:18:04;;;;;;;59.83;34.72;;;;;;;;;;5134102;27;20038;-77
2021/01/17 17:21:08;;;;;;;31.63;21.55;;;;;;;;;;5134144;27;20050;-77
2021/01/17 17:24:12;;;;;;;27.00;19.95;;;;;;;;;;5121585;27;20525;-77
2021/01/17 17:27:16;;;;;;;25.30;17.38;;;;;;;;;;5133812;27;20050;-77
2021/01/17 17:30:21;;;;;;;44.78;29.17;;;;;;;;;;5133720;27;20038;-77
2021/01/17 17:33:26;;;;;;;51.10;30.65;;;;;;;;;;5134000;27;20046;-77
2021/01/17 17:36:30;;;;;;;73.07;42.67;;;;;;;;;;5133696;27;20047;-77
2021/01/17 17:39:35;;;;;;;80.93;46.65;;;;;;;;;;5133462;27;20054;-76
2021/01/17 17:42:39;;;;;;;47.85;28.45;;;;;;;;;;5121166;27;20046;-76
2021/01/17 17:45:43;;;;;;;68.13;36.00;;;;;;;;;;5133750;27;20054;-77
2021/01/17 17:48:48;;;;;;;46.47;28.10;;;;;;;;;;5109101;27;20038;-77
2021/01/17 17:51:52;;;;;;;43.85;26.58;;;;;;;;;;5133829;27;20050;-77
2021/01/17 17:54:57;;;;;;;55.15;32.88;;;;;;;;;;5120962;27;20046;-77
2021/01/17 17:58:02;;;;;;;91.47;53.72;;;;;;;;;;5121040;27;20051;-77
2021/01/17 18:01:07;;;;;;;67.20;42.58;;;;;;;;;;5133102;27;20497;-77
2021/01/17 18:04:13;;;;;;;73.82;47.60;;;;;;;;;;5133934;27;20034;-77